Time;durP1;ratioP1;P1;durP2;ratioP2;P2;SDS_P1;SDS_P2;PMS_P1;PMS_P2;Temp;Humidity;BMP_temperature;BMP_pressure;BME280_temperature;BME280_humidity;BME280_pressure;Samples;Min_cycle;Max_cycle;Signal;HPM_P1;HPM_P2
2021/01/20 00:00:29;;;;;;;;;;;;;;;;;;5105201;28;19924;-69
2021/01/20 00:02:55;;;;;;;;;;;;;;;;;;5101544;28;20398;-66
2021/01/20 00:05:22;;;;;;;;;;;;;;;;;;5114484;28;19928;-69
2021/01/20 00:07:48;;;;;;;;;;;;;;;;;;5112156;28;19924;-68
2021/01/20 00:10:16;;;;;;;;;;;;;;;;;;5100942;28;19932;-74
2021/01/20 00:12:44;;;;;;;;;;;;;;;;;;5109515;28;19940;-69
2021/01/20 00:15:10;;;;;;;;;;;;;;;;;;5100948;28;20199;-70
2021/01/20 00:17:37;;;;;;;;;;;;;;;;;;5108294;28;20302;-70
2021/01/20 00:20:03;;;;;;;;;;;;;;;;;;5100157;28;19930;-70
2021/01/20 00:22:30;;;;;;;;;;;;;;;;;;5106881;28;20022;-70
2021/01/20 00:24:56;;;;;;;;;;;;;;;;;;5108027;28;19924;-69
2021/01/20 00:27:23;;;;;;;;;;;;;;;;;;5108263;28;19930;-70
2021/01/20 00:29:49;;;;;;;;;;;;;;;;;;5111648;28;19936;-70
2021/01/20 00:32:16;;;;;;;;;;;;;;;;;;5104023;28;19924;-70
2021/01/20 00:34:42;;;;;;;;;;;;;;;;;;5112115;28;20022;-70
2021/01/20 00:37:09;;;;;;;;;;;;;;;;;;5102275;28;19930;-70
2021/01/20 00:39:35;;;;;;;;;;;;;;;;;;5109980;28;19930;-70
2021/01/20 00:42:02;;;;;;;;;;;;;;;;;;5109027;28;20337;-71
2021/01/20 00:44:28;;;;;;;;;;;;;;;;;;5098670;27;19924;-71
2021/01/20 00:46:55;;;;;;;;;;;;;;;;;;5095898;28;20384;-71
2021/01/20 00:49:21;;;;;;;;;;;;;;;;;;5108848;28;19924;-71
2021/01/20 00:51:48;;;;;;;;;;;;;;;;;;5098576;28;20356;-71
2021/01/20 00:54:14;;;;;;;;;;;;;;;;;;5103522;28;20015;-71
2021/01/20 00:56:42;;;;;;;;;;;;;;;;;;5108209;28;19938;-71
2021/01/20 00:59:08;;;;;;;;;;;;;;;;;;5106166;28;21271;-71
2021/01/20 01:01:35;;;;;;;;;;;;;;;;;;5110762;28;19969;-71
2021/01/20 01:04:02;;;;;;;;;;;;;;;;;;5105172;28;19928;-71
2021/01/20 01:06:28;;;;;;;;;;;;;;;;;;5100707;28;19924;-71
2021/01/20 01:08:55;;;;;;;;;;;;;;;;;;5099623;28;19977;-71
2021/01/20 01:11:21;;;;;;;;;;;;;;;;;;5113119;28;19927;-71
2021/01/20 01:13:47;;;;;;;;;;;;;;;;;;5104685;28;20022;-71
2021/01/20 01:16:14;;;;;;;;;;;;;;;;;;5110019;28;19924;-71
2021/01/20 01:18:40;;;;;;;;;;;;;;;;;;5108822;28;19935;-71
2021/01/20 01:21:07;;;;;;;;;;;;;;;;;;5111576;28;19924;-71
2021/01/20 01:23:33;;;;;;;;;;;;;;;;;;5112311;28;19978;-71
2021/01/20 01:26:00;;;;;;;;;;;;;;;;;;5110730;28;19924;-71
2021/01/20 01:28:26;;;;;;;;;;;;;;;;;;5099213;28;20158;-70
2021/01/20 01:30:53;;;;;;;;;;;;;;;;;;5105636;28;19946;-71
2021/01/20 01:33:19;;;;;;;;;;;;;;;;;;5096353;28;19928;-71
2021/01/20 01:35:46;;;;;;;;;;;;;;;;;;5106557;28;20375;-71
2021/01/20 01:38:12;;;;;;;;;;;;;;;;;;5113430;28;19924;-71
2021/01/20 01:40:39;;;;;;;;;;;;;;;;;;5107781;28;19925;-71
2021/01/20 01:43:05;;;;;;;;;;;;;;;;;;5110635;28;19924;-71
2021/01/20 01:45:32;;;;;;;;;;;;;;;;;;5106349;28;19923;-72
2021/01/20 01:47:58;;;;;;;;;;;;;;;;;;5110019;28;21009;-72
2021/01/20 01:50:25;;;;;;;;;;;;;;;;;;5106216;28;20183;-72
2021/01/20 01:52:51;;;;;;;;;;;;;;;;;;5103553;28;20276;-71
2021/01/20 01:55:18;;;;;;;;;;;;;;;;;;5108343;28;19924;-72
2021/01/20 01:57:44;;;;;;;;;;;;;;;;;;5111296;28;20080;-72
2021/01/20 02:00:11;;;;;;;;;;;;;;;;;;5103183;28;19934;-71
2021/01/20 02:02:37;;;;;;;;;;;;;;;;;;5106877;28;20011;-72
2021/01/20 02:05:04;;;;;;;;;;;;;;;;;;5100274;28;19923;-71
2021/01/20 02:07:30;;;;;;;;;;;;;;;;;;5109811;28;21526;-71
2021/01/20 02:09:57;;;;;;;;;;;;;;;;;;5102765;28;19939;-70
2021/01/20 02:12:23;;;;;;;;;;;;;;;;;;5099641;28;19932;-71
2021/01/20 02:14:50;;;;;;;;;;;;;;;;;;5102783;28;19924;-72
2021/01/20 02:17:16;;;;;;;;;;;;;;;;;;5103535;28;20291;-72
2021/01/20 02:19:43;;;;;;;;;;;;;;;;;;5103138;28;20010;-71
2021/01/20 02:22:09;;;;;;;;;;;;;;;;;;5108915;28;19923;-71
2021/01/20 02:24:36;;;;;;;;;;;;;;;;;;5103507;28;19931;-71
2021/01/20 02:27:02;;;;;;;;;;;;;;;;;;5108107;28;20411;-71
2021/01/20 02:29:29;;;;;;;;;;;;;;;;;;5099059;28;19927;-71
2021/01/20 02:31:55;;;;;;;;;;;;;;;;;;5103154;28;20398;-71
2021/01/20 02:34:22;;;;;;;;;;;;;;;;;;5104670;28;19924;-71
2021/01/20 02:36:48;;;;;;;;;;;;;;;;;;5102102;28;20345;-71
2021/01/20 02:39:15;;;;;;;;;;;;;;;;;;5106279;28;20014;-70
2021/01/20 02:41:41;;;;;;;;;;;;;;;;;;5099652;28;19928;-71
2021/01/20 02:44:08;;;;;;;;;;;;;;;;;;5103004;28;19984;-71
2021/01/20 02:46:34;;;;;;;;;;;;;;;;;;5108081;28;19946;-71
2021/01/20 02:49:01;;;;;;;;;;;;;;;;;;5107336;28;19962;-71
2021/01/20 02:51:27;;;;;;;;;;;;;;;;;;5100510;28;19924;-69
2021/01/20 02:53:54;;;;;;;;;;;;;;;;;;5105565;28;20343;-71
2021/01/20 02:56:21;;;;;;;;;;;;;;;;;;5106885;28;19934;-71
2021/01/20 02:58:47;;;;;;;;;;;;;;;;;;5109298;28;19924;-71
2021/01/20 03:01:14;;;;;;;;;;;;;;;;;;5107627;28;19923;-71
2021/01/20 03:03:40;;;;;;;;;;;;;;;;;;5101125;28;20024;-71
2021/01/20 03:06:07;;;;;;;;;;;;;;;;;;5109722;28;19930;-71
2021/01/20 03:08:33;;;;;;;;;;;;;;;;;;5103607;28;19928;-71
2021/01/20 03:10:59;;;;;;;;;;;;;;;;;;5100983;28;19927;-71
2021/01/20 03:13:26;;;;;;;;;;;;;;;;;;5110290;28;20072;-72
2021/01/20 03:15:52;;;;;;;;;;;;;;;;;;5100733;28;19924;-71
2021/01/20 03:18:19;;;;;;;;;;;;;;;;;;5104800;28;19968;-72
2021/01/20 03:20:45;;;;;;;;;;;;;;;;;;5108149;28;19946;-70
2021/01/20 03:23:12;;;;;;;;;;;;;;;;;;5107191;28;19964;-71
2021/01/20 03:25:38;;;;;;;;;;;;;;;;;;5106148;28;20015;-71
2021/01/20 03:28:05;;;;;;;;;;;;;;;;;;5100847;28;20407;-70
2021/01/20 03:30:31;;;;;;;;;;;;;;;;;;5101397;28;20102;-71
2021/01/20 03:32:58;;;;;;;;;;;;;;;;;;5110007;28;20346;-70
2021/01/20 03:35:24;;;;;;;;;;;;;;;;;;5099825;28;19930;-71
2021/01/20 03:37:51;;;;;;;;;;;;;;;;;;5099557;28;19931;-71
2021/01/20 03:40:17;;;;;;;;;;;;;;;;;;5101016;28;19931;-71
2021/01/20 03:42:44;;;;;;;;;;;;;;;;;;5102405;28;19941;-71
2021/01/20 03:45:10;;;;;;;;;;;;;;;;;;5099337;28;20303;-71
2021/01/20 03:47:37;;;;;;;;;;;;;;;;;;5102681;28;20367;-71
2021/01/20 03:50:03;;;;;;;;;;;;;;;;;;5098570;28;19924;-71
2021/01/20 03:52:30;;;;;;;;;;;;;;;;;;5104176;28;19928;-71
2021/01/20 03:54:57;;;;;;;;;;;;;;;;;;5095514;28;19930;-71
2021/01/20 03:57:24;;;;;;;;;;;;;;;;;;5108977;28;20293;-71
2021/01/20 03:59:50;;;;;;;;;;;;;;;;;;5106764;28;19935;-70
2021/01/20 04:02:17;;;;;;;;;;;;;;;;;;5102607;28;19976;-74
2021/01/20 04:04:43;;;;;;;;;;;;;;;;;;5100751;28;19924;-71
2021/01/20 04:07:10;;;;;;;;;;;;;;;;;;5095691;28;19931;-71
2021/01/20 04:09:36;;;;;;;;;;;;;;;;;;5106171;28;20306;-70
2021/01/20 04:12:02;;;;;;;;;;;;;;;;;;5106761;28;19928;-71
2021/01/20 04:14:29;;;;;;;;;;;;;;;;;;5102527;28;20294;-71
2021/01/20 04:16:55;;;;;;;;;;;;;;;;;;5110110;28;19976;-70
2021/01/20 04:19:22;;;;;;;;;;;;;;;;;;5105020;28;20328;-70
2021/01/20 04:21:49;;;;;;;;;;;;;;;;;;5113596;28;19928;-70
2021/01/20 04:24:15;;;;;;;;;;;;;;;;;;5109202;28;20395;-71
2021/01/20 04:26:42;;;;;;;;;;;;;;;;;;5111938;28;19932;-70
2021/01/20 04:29:08;;;;;;;;;;;;;;;;;;5110244;28;19924;-71
2021/01/20 04:31:35;;;;;;;;;;;;;;;;;;5109380;28;19924;-70
2021/01/20 04:34:01;;;;;;;;;;;;;;;;;;5104884;28;19931;-70
2021/01/20 04:36:28;;;;;;;;;;;;;;;;;;5107770;28;19924;-71
2021/01/20 04:38:54;;;;;;;;;;;;;;;;;;5108130;28;20010;-69
2021/01/20 04:41:21;;;;;;;;;;;;;;;;;;5107087;28;19928;-69
2021/01/20 04:43:47;;;;;;;;;;;;;;;;;;5107335;28;19968;-69
2021/01/20 04:46:14;;;;;;;;;;;;;;;;;;5112060;28;19930;-69
2021/01/20 04:48:40;;;;;;;;;;;;;;;;;;5102961;28;20189;-69
2021/01/20 04:51:07;;;;;;;;;;;;;;;;;;5105353;28;20423;-71
2021/01/20 04:53:33;;;;;;;;;;;;;;;;;;5098388;28;19931;-69
2021/01/20 04:56:01;;;;;;;;;;;;;;;;;;5107823;28;20330;-69
2021/01/20 04:58:27;;;;;;;;;;;;;;;;;;5107171;28;19932;-68
2021/01/20 05:00:54;;;;;;;;;;;;;;;;;;5110145;28;19924;-69
2021/01/20 05:03:20;;;;;;;;;;;;;;;;;;5107327;28;21968;-70
2021/01/20 05:05:47;;;;;;;;;;;;;;;;;;5112948;28;19927;-71
2021/01/20 05:08:13;;;;;;;;;;;;;;;;;;5105955;28;19928;-69
2021/01/20 05:10:40;;;;;;;;;;;;;;;;;;5103391;28;19935;-69
2021/01/20 05:13:06;;;;;;;;;;;;;;;;;;5108108;28;19924;-69
2021/01/20 05:15:33;;;;;;;;;;;;;;;;;;5102701;28;19931;-69
2021/01/20 05:17:59;;;;;;;;;;;;;;;;;;5109240;28;19969;-68
2021/01/20 05:20:26;;;;;;;;;;;;;;;;;;5108131;28;19924;-69
2021/01/20 05:22:52;;;;;;;;;;;;;;;;;;5105293;28;19947;-69
2021/01/20 05:25:19;;;;;;;;;;;;;;;;;;5108512;28;19924;-70
2021/01/20 05:27:45;;;;;;;;;;;;;;;;;;5098084;28;19924;-69
2021/01/20 05:30:12;;;;;;;;;;;;;;;;;;5100648;28;19923;-69
2021/01/20 05:32:38;;;;;;;;;;;;;;;;;;5107901;28;19924;-69
2021/01/20 05:35:05;;;;;;;;;;;;;;;;;;5110451;28;19923;-69
2021/01/20 05:37:31;;;;;;;;;;;;;;;;;;5098726;28;20312;-67
2021/01/20 05:39:58;;;;;;;;;;;;;;;;;;5111895;28;19930;-70
2021/01/20 05:42:24;;;;;;;;;;;;;;;;;;5100799;28;19923;-69
2021/01/20 05:44:51;;;;;;;;;;;;;;;;;;5108210;28;19932;-69
2021/01/20 05:47:17;;;;;;;;;;;;;;;;;;5110870;28;19928;-68
2021/01/20 05:49:43;;;;;;;;;;;;;;;;;;5110425;28;19991;-68
2021/01/20 05:52:10;;;;;;;;;;;;;;;;;;5102879;28;19928;-69
2021/01/20 05:54:36;;;;;;;;;;;;;;;;;;5104914;28;19931;-67
2021/01/20 05:57:03;;;;;;;;;;;;;;;;;;5111578;28;19931;-68
2021/01/20 05:59:29;;;;;;;;;;;;;;;;;;5110461;28;20387;-70
2021/01/20 06:01:56;;;;;;;;;;;;;;;;;;5105739;28;19924;-69
2021/01/20 06:04:22;;;;;;;;;;;;;;;;;;5105543;28;19961;-69
2021/01/20 06:06:49;;;;;;;;;;;;;;;;;;5109015;28;19931;-70
2021/01/20 06:09:15;;;;;;;;;;;;;;;;;;5106125;28;19948;-70
2021/01/20 06:11:42;;;;;;;;;;;;;;;;;;5100444;28;19925;-68
2021/01/20 06:14:08;;;;;;;;;;;;;;;;;;5101389;28;19933;-68
2021/01/20 06:16:35;;;;;;;;;;;;;;;;;;5107846;28;20307;-66
2021/01/20 06:19:01;;;;;;;;;;;;;;;;;;5107869;28;19924;-68
2021/01/20 06:21:28;;;;;;;;;;;;;;;;;;5108784;28;20026;-68
2021/01/20 06:23:54;;;;;;;;;;;;;;;;;;5107837;28;19934;-68
2021/01/20 06:26:21;;;;;;;;;;;;;;;;;;5111060;28;20447;-67
2021/01/20 06:28:47;;;;;;;;;;;;;;;;;;5104026;28;19970;-68
2021/01/20 06:31:14;;;;;;;;;;;;;;;;;;5105164;28;20345;-68
2021/01/20 06:33:40;;;;;;;;;;;;;;;;;;5105659;28;19928;-68
2021/01/20 06:36:07;;;;;;;;;;;;;;;;;;5104834;28;20300;-68
2021/01/20 06:38:33;;;;;;;;;;;;;;;;;;5097955;28;19923;-69
2021/01/20 06:41:00;;;;;;;;;;;;;;;;;;5105105;28;19982;-68
2021/01/20 06:43:26;;;;;;;;;;;;;;;;;;5104597;28;19927;-68
2021/01/20 06:45:53;;;;;;;;;;;;;;;;;;5103031;28;19927;-68
2021/01/20 06:48:19;;;;;;;;;;;;;;;;;;5098411;28;19923;-72
2021/01/20 06:50:46;;;;;;;;;;;;;;;;;;5108552;28;19927;-68
2021/01/20 06:53:12;;;;;;;;;;;;;;;;;;5107474;28;20026;-68
2021/01/20 06:55:39;;;;;;;;;;;;;;;;;;5102706;28;19928;-67
2021/01/20 06:58:05;;;;;;;;;;;;;;;;;;5110837;28;19924;-69
2021/01/20 07:00:32;;;;;;;;;;;;;;;;;;5106566;28;20333;-69
2021/01/20 07:02:58;;;;;;;;;;;;;;;;;;5100336;28;19932;-68
2021/01/20 07:05:25;;;;;;;;;;;;;;;;;;5105921;28;19928;-68
2021/01/20 07:07:52;;;;;;;;;;;;;;;;;;5104399;28;19924;-67
2021/01/20 07:10:19;;;;;;;;;;;;;;;;;;5104819;28;20299;-67
2021/01/20 07:12:45;;;;;;;;;;;;;;;;;;5106025;28;19955;-68
2021/01/20 07:15:12;;;;;;;;;;;;;;;;;;5108803;28;20419;-68
2021/01/20 07:17:38;;;;;;;;;;;;;;;;;;5109656;28;19944;-68
2021/01/20 07:20:05;;;;;;;;;;;;;;;;;;5102197;28;20034;-67
2021/01/20 07:22:31;;;;;;;;;;;;;;;;;;5109640;28;20028;-71
2021/01/20 07:24:58;;;;;;;;;;;;;;;;;;5106527;28;19963;-68
2021/01/20 07:27:24;;;;;;;;;;;;;;;;;;5108713;28;19927;-68
2021/01/20 07:29:51;;;;;;;;;;;;;;;;;;5105308;28;19934;-70
2021/01/20 07:32:17;;;;;;;;;;;;;;;;;;5109164;28;19923;-69
2021/01/20 07:34:44;;;;;;;;;;;;;;;;;;5105538;28;20261;-70
2021/01/20 07:37:10;;;;;;;;;;;;;;;;;;5101368;28;19935;-70
2021/01/20 07:39:37;;;;;;;;;;;;;;;;;;5108323;28;19945;-71
2021/01/20 07:42:05;;;;;;;;;;;;;;;;;;5104510;28;19924;-71
2021/01/20 07:44:31;;;;;;;;;;;;;;;;;;5100596;28;19924;-71
2021/01/20 07:46:58;;;;;;;;;;;;;;;;;;5104305;28;19928;-67
2021/01/20 07:49:24;;;;;;;;;;;;;;;;;;5104078;28;19931;-69
2021/01/20 07:51:51;;;;;;;;;;;;;;;;;;5114521;28;19924;-69
2021/01/20 07:54:17;;;;;;;;;;;;;;;;;;5107662;28;19930;-70
2021/01/20 07:56:44;;;;;;;;;;;;;;;;;;5114231;28;20010;-74
2021/01/20 07:59:10;;;;;;;;;;;;;;;;;;5103389;28;19928;-70
2021/01/20 08:01:37;;;;;;;;;;;;;;;;;;5111607;28;19924;-70
2021/01/20 08:04:03;;;;;;;;;;;;;;;;;;5103534;28;20359;-68
2021/01/20 08:06:30;;;;;;;;;;;;;;;;;;5114814;28;20038;-69
2021/01/20 08:08:58;;;;;;;;;;;;;;;;;;5100396;28;19927;-69
2021/01/20 08:11:24;;;;;;;;;;;;;;;;;;5109386;28;19923;-70
2021/01/20 08:13:51;;;;;;;;;;;;;;;;;;5102122;28;19930;-70
2021/01/20 08:16:17;;;;;;;;;;;;;;;;;;5111122;27;19924;-69
2021/01/20 08:18:44;;;;;;;;;;;;;;;;;;5105190;28;20030;-71
2021/01/20 08:21:10;;;;;;;;;;;;;;;;;;5114547;28;20018;-71
2021/01/20 08:23:37;;;;;;;;;;;;;;;;;;5110152;27;19924;-71
2021/01/20 08:26:03;;;;;;;;;;;;;;;;;;5111639;28;20026;-73
2021/01/20 08:28:30;;;;;;;;;;;;;;;;;;5103343;28;20320;-72
2021/01/20 08:30:56;;;;;;;;;;;;;;;;;;5108990;28;19931;-72
2021/01/20 08:33:24;;;;;;;;;;;;;;;;;;5108200;28;19930;-72
2021/01/20 08:35:50;;;;;;;;;;;;;;;;;;5111325;28;19924;-70
2021/01/20 08:38:17;;;;;;;;;;;;;;;;;;5110891;28;19934;-72
2021/01/20 08:40:43;;;;;;;;;;;;;;;;;;5112005;28;19924;-71
2021/01/20 08:43:10;;;;;;;;;;;;;;;;;;5111136;28;19927;-71
2021/01/20 08:45:37;;;;;;;;;;;;;;;;;;5106895;28;19968;-72
2021/01/20 08:48:03;;;;;;;;;;;;;;;;;;5111452;28;20418;-72
2021/01/20 08:50:30;;;;;;;;;;;;;;;;;;5107467;28;20027;-72
2021/01/20 08:52:56;;;;;;;;;;;;;;;;;;5104027;28;19924;-73
2021/01/20 08:55:25;;;;;;;;;;;;;;;;;;5110239;28;20387;-69
2021/01/20 08:57:53;;;;;;;;;;;;;;;;;;5107761;28;19987;-70
2021/01/20 09:00:20;;;;;;;;;;;;;;;;;;5108812;28;19931;-73
2021/01/20 09:02:46;;;;;;;;;;;;;;;;;;5110185;28;19968;-70
2021/01/20 09:05:13;;;;;;;;;;;;;;;;;;5110545;28;19923;-69
2021/01/20 09:07:40;;;;;;;;;;;;;;;;;;5107292;28;20030;-72
2021/01/20 09:10:06;;;;;;;;;;;;;;;;;;5110767;28;20426;-71
2021/01/20 09:12:34;;;;;;;;;;;;;;;;;;5104540;28;19938;-72
2021/01/20 09:15:01;;;;;;;;;;;;;;;;;;5108146;28;19966;-72
2021/01/20 09:17:27;;;;;;;;;;;;;;;;;;5112363;28;19963;-69
2021/01/20 09:19:54;;;;;;;;;;;;;;;;;;5112847;28;19924;-72
2021/01/20 09:22:20;;;;;;;;;;;;;;;;;;5109647;28;19932;-70
2021/01/20 09:24:47;;;;;;;;;;;;;;;;;;5106267;28;19942;-71
2021/01/20 09:27:14;;;;;;;;;;;;;;;;;;5112482;28;20022;-70
2021/01/20 09:29:41;;;;;;;;;;;;;;;;;;5106599;27;19924;-70
2021/01/20 09:32:07;;;;;;;;;;;;;;;;;;5111667;28;19937;-71
2021/01/20 09:34:34;;;;;;;;;;;;;;;;;;5110031;28;20085;-70
2021/01/20 09:37:00;;;;;;;;;;;;;;;;;;5112833;28;20019;-71
2021/01/20 09:39:27;;;;;;;;;;;;;;;;;;5109811;28;19931;-71
2021/01/20 09:41:53;;;;;;;;;;;;;;;;;;5111805;28;19930;-70
2021/01/20 09:44:20;;;;;;;;;;;;;;;;;;5108773;28;19983;-71
2021/01/20 09:46:46;;;;;;;;;;;;;;;;;;5111978;28;19953;-69
2021/01/20 09:49:13;;;;;;;;;;;;;;;;;;5108224;28;20319;-70
2021/01/20 09:51:39;;;;;;;;;;;;;;;;;;5111461;28;19928;-71
2021/01/20 09:54:06;;;;;;;;;;;;;;;;;;5109271;27;19923;-71
2021/01/20 09:56:32;;;;;;;;;;;;;;;;;;5110708;28;19930;-69
2021/01/20 09:58:59;;;;;;;;;;;;;;;;;;5109739;28;19963;-71
2021/01/20 10:01:25;;;;;;;;;;;;;;;;;;5112758;28;20311;-71
2021/01/20 10:03:54;;;;;;;;;;;;;;;;;;5105171;28;20348;-70
2021/01/20 10:06:21;;;;;;;;;;;;;;;;;;5105102;28;19931;-73
2021/01/20 10:08:47;;;;;;;;;;;;;;;;;;5105672;28;20019;-73
2021/01/20 10:11:14;;;;;;;;;;;;;;;;;;5110061;28;20033;-72
2021/01/20 10:13:40;;;;;;;;;;;;;;;;;;5106771;28;20037;-75
2021/01/20 10:16:07;;;;;;;;;;;;;;;;;;5110111;28;20095;-71
2021/01/20 10:18:33;;;;;;;;;;;;;;;;;;5106353;28;20061;-70
2021/01/20 10:21:00;;;;;;;;;;;;;;;;;;5112270;28;19928;-71
2021/01/20 10:23:26;;;;;;;;;;;;;;;;;;5104929;28;19924;-72
2021/01/20 10:25:53;;;;;;;;;;;;;;;;;;5112924;28;20299;-72
2021/01/20 10:28:20;;;;;;;;;;;;;;;;;;5103304;28;20242;-72
2021/01/20 10:30:46;;;;;;;;;;;;;;;;;;5107828;28;19934;-74
2021/01/20 10:33:13;;;;;;;;;;;;;;;;;;5102543;28;19924;-73
2021/01/20 10:35:40;;;;;;;;;;;;;;;;;;5112389;28;19932;-74
2021/01/20 10:38:06;;;;;;;;;;;;;;;;;;5109319;28;19924;-74
2021/01/20 10:40:33;;;;;;;;;;;;;;;;;;5109112;28;20438;-71
2021/01/20 10:42:59;;;;;;;;;;;;;;;;;;5109176;28;20430;-74
2021/01/20 10:45:26;;;;;;;;;;;;;;;;;;5109657;28;19923;-72
2021/01/20 10:47:52;;;;;;;;;;;;;;;;;;5111463;28;19976;-71
2021/01/20 10:50:19;;;;;;;;;;;;;;;;;;5110862;28;20014;-72
2021/01/20 10:52:47;;;;;;;;;;;;;;;;;;5105217;28;21467;-71
2021/01/20 10:55:13;;;;;;;;;;;;;;;;;;5105925;28;19930;-72
2021/01/20 10:57:40;;;;;;;;;;;;;;;;;;5110258;28;20302;-71
2021/01/20 11:00:06;;;;;;;;;;;;;;;;;;5103938;28;19975;-69
2021/01/20 11:02:33;;;;;;;;;;;;;;;;;;5110138;28;19923;-72
2021/01/20 11:05:00;;;;;;;;;;;;;;;;;;5110588;28;19973;-71
2021/01/20 11:07:26;;;;;;;;;;;;;;;;;;5102618;28;20304;-72
2021/01/20 11:09:56;;;;;;;;;;;;;;;;;;5101708;28;19924;-73
2021/01/20 11:12:22;;;;;;;;;;;;;;;;;;5110184;28;20277;-72
2021/01/20 11:14:49;;;;;;;;;;;;;;;;;;5106882;28;20002;-70
2021/01/20 11:17:15;;;;;;;;;;;;;;;;;;5107403;28;19971;-72
2021/01/20 11:19:42;;;;;;;;;;;;;;;;;;5106848;28;19932;-71
2021/01/20 11:22:09;;;;;;;;;;;;;;;;;;5109516;28;19987;-72
2021/01/20 11:24:36;;;;;;;;;;;;;;;;;;5109631;28;19924;-72
2021/01/20 11:27:02;;;;;;;;;;;;;;;;;;5110591;28;19969;-70
2021/01/20 11:29:29;;;;;;;;;;;;;;;;;;5109581;28;20496;-73
2021/01/20 11:31:55;;;;;;;;;;;;;;;;;;5111787;28;19923;-73
2021/01/20 11:34:22;;;;;;;;;;;;;;;;;;5103420;28;20416;-72
2021/01/20 11:36:48;;;;;;;;;;;;;;;;;;5106519;28;20024;-72
2021/01/20 11:39:15;;;;;;;;;;;;;;;;;;5103932;28;20311;-74
2021/01/20 11:41:41;;;;;;;;;;;;;;;;;;5106728;28;19924;-72
2021/01/20 11:44:08;;;;;;;;;;;;;;;;;;5102626;28;19932;-74
2021/01/20 11:46:34;;;;;;;;;;;;;;;;;;5109865;28;19988;-71
2021/01/20 11:49:07;;;;;;;;;;;;;;;;;;5103896;28;19928;-71
2021/01/20 11:51:34;;;;;;;;;;;;;;;;;;5106919;28;19924;-71
2021/01/20 11:54:00;;;;;;;;;;;;;;;;;;5104879;28;20456;-73
2021/01/20 11:56:27;;;;;;;;;;;;;;;;;;5108686;28;19986;-72
2021/01/20 11:58:53;;;;;;;;;;;;;;;;;;5101264;28;19923;-73
2021/01/20 12:01:22;;;;;;;;;;;;;;;;;;5107608;28;19928;-70
2021/01/20 12:03:48;;;;;;;;;;;;;;;;;;5102859;28;19963;-71
2021/01/20 12:06:15;;;;;;;;;;;;;;;;;;5108141;28;19924;-72
2021/01/20 12:08:41;;;;;;;;;;;;;;;;;;5101725;28;19924;-70
2021/01/20 12:11:08;;;;;;;;;;;;;;;;;;5101312;28;19979;-72
2021/01/20 12:13:34;;;;;;;;;;;;;;;;;;5102522;28;20014;-74
2021/01/20 12:16:01;;;;;;;;;;;;;;;;;;5102110;28;20580;-73
2021/01/20 12:18:27;;;;;;;;;;;;;;;;;;5097952;28;19936;-73
2021/01/20 12:20:54;;;;;;;;;;;;;;;;;;5105375;28;20018;-70
2021/01/20 12:23:20;;;;;;;;;;;;;;;;;;5103273;28;20391;-70
2021/01/20 12:25:47;;;;;;;;;;;;;;;;;;5102919;28;19931;-70
2021/01/20 12:28:13;;;;;;;;;;;;;;;;;;5103753;28;20216;-71
2021/01/20 12:30:40;;;;;;;;;;;;;;;;;;5108530;28;19928;-72
2021/01/20 12:33:06;;;;;;;;;;;;;;;;;;5103414;28;19932;-70
2021/01/20 12:35:33;;;;;;;;;;;;;;;;;;5103910;28;20063;-71
2021/01/20 12:37:59;;;;;;;;;;;;;;;;;;5104919;28;19982;-71
2021/01/20 12:40:26;;;;;;;;;;;;;;;;;;5119195;22;19929;-71
2021/01/20 12:42:52;;;;;;;;;;;;;;;;;;5065755;28;19936;-70
2021/01/20 12:45:19;;;;;;;;;;;;;;;;;;5062097;28;19950;-71
2021/01/20 12:47:45;;;;;;;;;;;;;;;;;;5070058;28;19970;-70
2021/01/20 12:50:12;;;;;;;;;;;;;;;;;;5071812;28;19924;-72
2021/01/20 12:52:38;;;;;;;;;;;;;;;;;;5064816;28;19935;-71
2021/01/20 12:55:04;;;;;;;;;;;;;;;;;;5066927;28;20026;-72
2021/01/20 12:57:31;;;;;;;;;;;;;;;;;;5071018;28;20021;-70
2021/01/20 12:59:57;;;;;;;;;;;;;;;;;;5070338;28;20344;-71
2021/01/20 13:02:24;;;;;;;;;;;;;;;;;;5066309;28;20015;-69
2021/01/20 13:04:50;;;;;;;;;;;;;;;;;;5067810;28;20011;-69
2021/01/20 13:07:17;;;;;;;;;;;;;;;;;;5069430;28;19931;-71
2021/01/20 13:09:43;;;;;;;;;;;;;;;;;;5063281;28;19925;-69
2021/01/20 13:12:10;;;;;;;;;;;;;;;;;;5067862;28;20023;-69
2021/01/20 13:14:36;;;;;;;;;;;;;;;;;;5066172;28;20400;-68
2021/01/20 13:17:03;;;;;;;;;;;;;;;;;;5070763;28;20023;-70
2021/01/20 13:19:29;;;;;;;;;;;;;;;;;;5066090;28;20191;-70
2021/01/20 13:21:56;;;;;;;;;;;;;;;;;;5068090;28;19971;-70
2021/01/20 13:24:23;;;;;;;;;;;;;;;;;;5064393;28;26537;-70
2021/01/20 13:26:49;;;;;;;;;;;;;;;;;;5070163;28;19994;-69
2021/01/20 13:29:15;;;;;;;;;;;;;;;;;;5064663;28;19962;-70
2021/01/20 13:31:42;;;;;;;;;;;;;;;;;;5070760;28;20015;-70
2021/01/20 13:34:08;;;;;;;;;;;;;;;;;;5064318;28;19933;-70
2021/01/20 13:36:35;;;;;;;;;;;;;;;;;;5071383;28;19939;-70
2021/01/20 13:39:01;;;;;;;;;;;;;;;;;;5064145;28;19939;-74
2021/01/20 13:41:28;;;;;;;;;;;;;;;;;;5069185;28;19963;-71
2021/01/20 13:43:54;;;;;;;;;;;;;;;;;;5062590;28;20287;-72
2021/01/20 13:46:21;;;;;;;;;;;;;;;;;;5066584;28;20039;-72
2021/01/20 13:48:47;;;;;;;;;;;;;;;;;;5068401;28;19924;-71
2021/01/20 13:51:14;;;;;;;;;;;;;;;;;;5063674;28;19931;-72
2021/01/20 13:53:40;;;;;;;;;;;;;;;;;;5059541;28;20020;-72
2021/01/20 13:56:07;;;;;;;;;;;;;;;;;;5064864;28;20418;-72
2021/01/20 13:58:33;;;;;;;;;;;;;;;;;;5065481;28;19982;-72
2021/01/20 14:01:00;;;;;;;;;;;;;;;;;;5067496;28;19930;-69
2021/01/20 14:03:28;;;;;;;;;;;;;;;;;;5064137;28;19924;-71
2021/01/20 14:05:54;;;;;;;;;;;;;;;;;;5068381;28;19971;-71
2021/01/20 14:08:21;;;;;;;;;;;;;;;;;;5068831;28;20064;-70
2021/01/20 14:10:47;;;;;;;;;;;;;;;;;;5064384;28;20027;-69
2021/01/20 14:13:14;;;;;;;;;;;;;;;;;;5067279;28;20020;-70
2021/01/20 14:15:40;;;;;;;;;;;;;;;;;;5068501;28;19929;-70
2021/01/20 14:18:07;;;;;;;;;;;;;;;;;;5070096;28;20030;-70
2021/01/20 14:20:33;;;;;;;;;;;;;;;;;;5067675;28;19968;-68
2021/01/20 14:23:00;;;;;;;;;;;;;;;;;;5065863;28;19932;-71
2021/01/20 14:25:26;;;;;;;;;;;;;;;;;;5062586;28;20362;-72
2021/01/20 14:27:53;;;;;;;;;;;;;;;;;;5065553;28;20049;-70
2021/01/20 14:30:19;;;;;;;;;;;;;;;;;;5070312;28;19957;-68
2021/01/20 14:32:46;;;;;;;;;;;;;;;;;;5064810;28;19924;-70
2021/01/20 14:35:12;;;;;;;;;;;;;;;;;;5065121;28;19928;-70
2021/01/20 14:37:39;;;;;;;;;;;;;;;;;;5069566;28;19975;-69
2021/01/20 14:40:05;;;;;;;;;;;;;;;;;;5067323;28;19931;-70
2021/01/20 14:42:32;;;;;;;;;;;;;;;;;;5065314;28;19935;-72
2021/01/20 14:44:58;;;;;;;;;;;;;;;;;;5067747;28;19925;-69
2021/01/20 14:47:25;;;;;;;;;;;;;;;;;;5077333;28;20284;-69
2021/01/20 14:49:51;;;;;;;;;;;;;;;;;;5063472;28;19969;-71
2021/01/20 14:52:18;;;;;;;;;;;;;;;;;;5054664;28;19924;-70
2021/01/20 14:54:44;;;;;;;;;;;;;;;;;;5064862;28;20112;-70
2021/01/20 14:57:11;;;;;;;;;;;;;;;;;;5065338;28;20019;-71
2021/01/20 14:59:37;;;;;;;;;;;;;;;;;;5064639;28;19928;-72
2021/01/20 15:02:04;;;;;;;;;;;;;;;;;;5066963;28;19931;-71
2021/01/20 15:04:30;;;;;;;;;;;;;;;;;;5065059;28;20410;-70
2021/01/20 15:06:57;;;;;;;;;;;;;;;;;;5062373;28;20387;-72
2021/01/20 15:09:23;;;;;;;;;;;;;;;;;;5062665;28;20467;-71
2021/01/20 15:11:50;;;;;;;;;;;;;;;;;;5062725;28;19932;-70
2021/01/20 15:14:16;;;;;;;;;;;;;;;;;;5066318;28;20113;-72
2021/01/20 15:16:43;;;;;;;;;;;;;;;;;;5067482;28;20201;-70
2021/01/20 15:19:09;;;;;;;;;;;;;;;;;;5066109;28;19944;-70
2021/01/20 15:21:36;;;;;;;;;;;;;;;;;;5068461;28;19963;-69
2021/01/20 15:24:02;;;;;;;;;;;;;;;;;;5051030;28;19971;-71
2021/01/20 15:26:29;;;;;;;;;;;;;;;;;;5050505;28;19955;-69
2021/01/20 15:28:56;;;;;;;;;;;;;;;;;;5051745;28;20370;-70
2021/01/20 15:31:25;;;;;;;;;;;;;;;;;;5055391;28;20395;-71
2021/01/20 15:33:52;;;;;;;;;;;;;;;;;;5058120;28;20104;-69
2021/01/20 15:36:18;;;;;;;;;;;;;;;;;;5055466;28;19928;-71
2021/01/20 15:38:45;;;;;;;;;;;;;;;;;;5059441;28;20114;-70
2021/01/20 15:41:11;;;;;;;;;;;;;;;;;;5056550;28;19932;-70
2021/01/20 15:43:38;;;;;;;;;;;;;;;;;;5069144;28;19975;-71
2021/01/20 15:46:05;;;;;;;;;;;;;;;;;;5066750;28;19929;-71
2021/01/20 15:48:31;;;;;;;;;;;;;;;;;;5069681;28;19925;-71
2021/01/20 15:50:58;;;;;;;;;;;;;;;;;;5067756;28;19925;-69
2021/01/20 15:53:25;;;;;;;;;;;;;;;;;;5071947;28;20303;-68
2021/01/20 15:55:51;;;;;;;;;;;;;;;;;;5065508;28;19931;-69
2021/01/20 15:58:18;;;;;;;;;;;;;;;;;;5070393;28;20706;-70
2021/01/20 16:00:44;;;;;;;;;;;;;;;;;;5071531;28;20386;-68
2021/01/20 16:03:11;;;;;;;;;;;;;;;;;;5068959;28;20376;-71
2021/01/20 16:05:38;;;;;;;;;;;;;;;;;;5070808;28;19928;-69
2021/01/20 16:08:04;;;;;;;;;;;;;;;;;;5073672;28;19926;-70
2021/01/20 16:10:31;;;;;;;;;;;;;;;;;;5074889;28;20003;-70
2021/01/20 16:12:58;;;;;;;;;;;;;;;;;;5071544;28;19976;-70
2021/01/20 16:15:25;;;;;;;;;;;;;;;;;;5071271;28;20328;-70
2021/01/20 16:17:51;;;;;;;;;;;;;;;;;;5073783;28;19963;-69
2021/01/20 16:20:18;;;;;;;;;;;;;;;;;;5073673;28;19931;-70
2021/01/20 16:22:46;;;;;;;;;;;;;;;;;;5072841;28;19986;-69
2021/01/20 16:25:12;;;;;;;;;;;;;;;;;;5074296;28;19928;-69
2021/01/20 16:27:39;;;;;;;;;;;;;;;;;;5075608;28;20006;-71
2021/01/20 16:30:05;;;;;;;;;;;;;;;;;;5076375;28;19925;-69
2021/01/20 16:32:32;;;;;;;;;;;;;;;;;;5075815;28;20027;-69
2021/01/20 16:34:58;;;;;;;;;;;;;;;;;;5066361;28;19967;-69
2021/01/20 16:37:25;;;;;;;;;;;;;;;;;;5070885;28;19946;-71
2021/01/20 16:39:52;;;;;;;;;;;;;;;;;;5072536;28;20011;-70